• Join FlightAware (Why Join?)
  • Login
  • US Flag 
06:04AM EDT


 

Airport Tracker/Info


-or-


 

Live Flight TrackerFlight Track Log ✈ N87CA ✈ 18-May-2013 ✈ KGMU - KFTY

Flight Track Log - Related Links

Times and Time Zones

All times are in EDT time to prevent confusion due to time zone crossing. See the N87CA flight status page for this flight to view local times or setup timezone preferences in your user account.

Time Position Orientation Groundspeed Altitude Reporting Facility
EDT Latitude Longitude Course Direction KTS MPH feet Rate Location/Type
04:48PM 34.8755 -82.5490 239° Southwest  Level FlightAware Approximate
04:48PM 34.7875 -82.5947 253° West 119 137 7,800  Level Atlanta Center
04:49PM 34.8607 -82.5967 256° West  Level FlightAware Approximate
04:49PM 34.7797 -82.6428 259° West 160 184 7,900  Level Atlanta Center
04:50PM 34.8507 -82.6467 256° West  Level FlightAware Approximate
04:50PM 34.7742 -82.6936 262° West 174 200 7,900  Level Atlanta Center
04:51PM 34.8321 -82.6883 253° West  Level FlightAware Approximate
04:51PM 34.7664 -82.7492 260° West 176 203 8,000  Level Atlanta Center
04:52PM 34.8198 -82.7376 253° West  Level FlightAware Approximate
04:52PM 34.7586 -82.8100 261° West 181 208 7,900  Level Atlanta Center
04:53PM 34.8075 -82.7869 253° West  Level FlightAware Approximate
04:53PM 34.7508 -82.8658 260° West 181 208 7,900  Level Atlanta Center
04:54PM 34.7952 -82.8362 253° West  Level FlightAware Approximate
04:54PM 34.7450 -82.9267 263° West 181 208 7,900  Level Atlanta Center
04:55PM 34.7353 -82.9847 258° West 175 201 7,900  Level Atlanta Center
04:56PM 34.7272 -83.0481 261° West 181 208 7,900  Level Atlanta Center
04:57PM 34.7047 -83.0964 240° Southwest 181 208 7,900  Level Atlanta Center
04:58PM 34.6739 -83.1369 227° Southwest 176 203 7,900  Level Atlanta Center
04:59PM 34.6386 -83.1881 230° Southwest 183 211 7,900  Level Atlanta Center
05:00PM 34.6036 -83.2336 227° Southwest 188 216 7,900  Level Atlanta Center
05:01PM 34.5744 -83.2744 229° Southwest 181 208 7,900  Level Atlanta Center
05:02PM 34.5394 -83.3200 227° Southwest 181 208 7,900 -60 Level Atlanta Center
05:03PM 34.5061 -83.3683 230° Southwest 187 215 7,800 -300 Descending Atlanta Center
05:04PM 34.4708 -83.4139 227° Southwest 187 215 7,400 -540 Descending Atlanta Center
05:05PM 34.4275 -83.4722 228° Southwest 202 232 6,800 -600 Descending Atlanta Center
05:06PM 34.3942 -83.5203 230° Southwest 207 238 6,200 -480 Descending Atlanta Center
05:07PM 34.3611 -83.5633 227° Southwest 207 238 5,900 -180 Descending Atlanta Center
05:08PM 34.3278 -83.6086 228° Southwest 191 220 5,900  Level Atlanta Center
05:09PM 34.2925 -83.6542 227° Southwest 186 214 6,000  Climbing Atlanta Center
05:10PM 34.2592 -83.6969 227° Southwest 186 214 6,000  Level Atlanta Center
05:11PM 34.2281 -83.7447 232° Southwest 186 214 6,000  Level Atlanta Center
05:12PM 34.1906 -83.7903 225° Southwest 186 214 6,000  Level Atlanta Center
05:13PM 34.1553 -83.8381 228° Southwest 186 214 6,000  Level Atlanta Center
05:15PM 34.1167 -83.9000 233° Southwest 183 211 6,000  Level Atlanta TRACON
05:16PM 34.0833 -83.9333 220° Southwest 183 211 6,000  Level Atlanta TRACON
05:17PM 34.0333 -83.9833 220° Southwest 183 211 6,000 -240 Level Atlanta TRACON
05:18PM 34.0000 -84.0333 231° Southwest 192 221 5,600 -420 Descending Atlanta TRACON
05:19PM 33.9667 -84.0833 231° Southwest 195 224 5,200 -360 Descending Atlanta TRACON
05:20PM 33.9333 -84.1333 231° Southwest 190 219 4,900 -240 Descending Atlanta TRACON
05:21PM 33.9000 -84.1667 220° Southwest 183 211 4,800 -360 Descending Atlanta TRACON
05:22PM 33.8667 -84.2167 231° Southwest 174 200 4,200 -480 Descending Atlanta TRACON
05:23PM 33.8333 -84.2500 220° Southwest 144 166 3,900 -300 Descending Atlanta TRACON
05:24PM 33.8167 -84.2833 239° Southwest 131 151 3,700 -360 Descending Atlanta TRACON
05:25PM 33.8000 -84.3333 248° West 152 175 3,200 -600 Descending Atlanta TRACON
05:26PM 33.8000 -84.3833 270° West 157 181 2,600 -420 Descending Atlanta TRACON
05:27PM 33.8000 -84.4333 270° West 135 155 2,400 -540 Descending Atlanta TRACON
05:28PM 33.7833 -84.4667 239° Southwest 112 129 1,600 -840 Descending Atlanta TRACON
05:30PM 33.7667 -84.5167 239° Southwest  Level FlightAware Approximate
05:37PM 33.7791 -84.5214 239° Southwest  Level Estimated